Time;durP1;ratioP1;P1;durP2;ratioP2;P2;SDS_P1;SDS_P2;PMS_P1;PMS_P2;Temp;Humidity;BMP_temperature;BMP_pressure;BME280_temperature;BME280_humidity;BME280_pressure;Samples;Min_cycle;Max_cycle;Signal;HPM_P1;HPM_P2
2022/06/28 00:01:34;;;;;;;12.98;11.15;;;;;;;18.79;66.03;99277.84;5024348;28;20072;-77
2022/06/28 00:04:00;;;;;;;13.50;12.20;;;;;;;19.11;65.06;99277.91;5010580;28;20038;-77
2022/06/28 00:06:25;;;;;;;14.65;13.25;;;;;;;19.03;65.27;99278.59;5028930;28;20037;-78
2022/06/28 00:08:50;;;;;;;16.45;13.45;;;;;;;18.69;66.03;99281.50;5029053;28;20318;-77
2022/06/28 00:11:16;;;;;;;16.23;14.63;;;;;;;18.31;66.95;99300.56;5026374;28;21062;-78
2022/06/28 00:13:41;;;;;;;15.30;13.65;;;;;;;18.70;65.94;99288.50;5042260;28;20515;-77
2022/06/28 00:16:07;;;;;;;15.38;13.77;;;;;;;18.43;66.29;99285.59;5026114;28;20342;-78
2022/06/28 00:18:37;;;;;;;16.02;14.32;;;;;;;18.05;67.21;99283.84;5027745;28;20033;-78
2022/06/28 00:21:06;;;;;;;13.02;11.82;;;;;;;18.41;66.26;99278.84;5027525;28;20504;-77
2022/06/28 00:23:32;;;;;;;15.35;13.85;;;;;;;17.98;67.20;99307.69;5030624;28;20488;-77
2022/06/28 00:25:57;;;;;;;17.98;16.17;;;;;;;17.64;67.59;99304.22;5024483;28;20060;-77
2022/06/28 00:28:23;;;;;;;19.88;17.80;;;;;;;17.57;68.33;99301.03;4996065;28;20036;-77
2022/06/28 00:30:48;;;;;;;19.25;17.30;;;;;;;16.09;72.67;99306.59;5022974;28;20026;-77
2022/06/28 00:33:14;;;;;;;16.85;15.07;;;;;;;16.45;72.63;99316.19;5024489;28;20029;-77
2022/06/28 00:35:39;;;;;;;19.88;16.88;;;;;;;17.61;67.64;99302.06;5027749;28;20022;-77
2022/06/28 00:38:05;;;;;;;17.92;14.25;;;;;;;17.75;67.28;99320.06;5027898;28;20068;-77
2022/06/28 00:40:32;;;;;;;19.90;17.65;;;;;;;15.97;72.76;99325.75;5028245;28;20105;-77
2022/06/28 00:42:58;;;;;;;23.40;19.73;;;;;;;17.24;68.69;99326.88;5028198;28;20040;-77
2022/06/28 00:45:23;;;;;;;16.20;14.63;;;;;;;17.66;68.22;99342.53;5038494;28;20544;-77
2022/06/28 00:47:49;;;;;;;20.67;18.17;;;;;;;16.87;70.01;99340.03;5025122;28;20044;-78
2022/06/28 00:50:15;;;;;;;17.10;15.30;;;;;;;17.13;68.92;99323.44;5018869;28;20040;-77
2022/06/28 00:53:01;;;;;;;16.63;14.23;;;;;;;17.19;69.29;99327.72;5024574;28;20017;-77
2022/06/28 00:55:27;;;;;;;21.98;17.83;;;;;;;16.28;71.63;99348.03;5025305;28;20477;-77
2022/06/28 00:57:52;;;;;;;20.77;18.08;;;;;;;16.01;72.35;99331.41;5027149;28;20086;-77
2022/06/28 01:00:17;;;;;;;14.52;13.20;;;;;;;16.69;70.71;99338.78;5025091;28;20071;-77
2022/06/28 01:02:43;;;;;;;20.75;17.63;;;;;;;16.47;71.40;99338.28;5024229;28;20511;-77
2022/06/28 01:05:08;;;;;;;18.85;16.77;;;;;;;16.17;72.71;99338.38;5023926;28;20029;-78
2022/06/28 01:07:34;;;;;;;14.75;11.75;;;;;;;17.62;68.18;99331.50;5005445;28;20048;-77
2022/06/28 01:10:00;;;;;;;12.85;11.40;;;;;;;18.07;66.36;99335.69;5025759;28;20029;-78
2022/06/28 01:12:26;;;;;;;14.57;12.98;;;;;;;18.02;65.78;99348.44;5038301;28;20044;-78
2022/06/28 01:14:51;;;;;;;21.40;18.02;;;;;;;17.07;68.88;99338.06;5028533;28;20489;-77
2022/06/28 01:17:16;;;;;;;15.25;13.18;;;;;;;17.14;68.60;99345.84;5026069;28;20033;-78
2022/06/28 01:19:42;;;;;;;14.07;12.60;;;;;;;17.62;67.16;99350.41;5027104;28;20029;-78
2022/06/28 01:22:10;;;;;;;17.98;16.02;;;;;;;17.69;66.92;99342.78;5024044;28;20033;-78
2022/06/28 01:24:36;;;;;;;20.55;18.45;;;;;;;16.23;71.69;99348.84;5040194;28;20232;-77
2022/06/28 01:27:02;;;;;;;15.20;13.77;;;;;;;16.78;70.50;99360.56;5024855;28;20025;-77
2022/06/28 01:29:28;;;;;;;18.38;16.50;;;;;;;16.48;71.10;99348.81;5021607;28;20496;-77
2022/06/28 01:31:53;;;;;;;20.63;18.50;;;;;;;16.28;71.41;99338.06;5021730;28;20075;-77
2022/06/28 01:34:20;;;;;;;21.45;18.80;;;;;;;15.67;73.41;99342.72;4992373;28;20030;-77
2022/06/28 01:36:46;;;;;;;14.95;13.35;;;;;;;16.95;69.44;99336.78;5021359;28;20476;-78
2022/06/28 01:39:12;;;;;;;18.23;13.43;;;;;;;17.58;67.20;99352.03;5024111;28;20041;-78
2022/06/28 01:41:37;;;;;;;20.77;18.55;;;;;;;17.21;67.83;99352.53;5026965;28;20041;-77
2022/06/28 01:44:06;;;;;;;15.68;13.75;;;;;;;17.32;67.73;99347.88;5020916;28;20069;-78
2022/06/28 01:46:34;;;;;;;14.85;13.35;;;;;;;18.02;65.44;99362.75;5006022;28;20033;-77
2022/06/28 01:49:00;;;;;;;14.45;13.05;;;;;;;18.09;65.25;99351.59;5027479;28;20117;-77
2022/06/28 01:51:25;;;;;;;18.10;13.38;;;;;;;18.17;65.13;99365.34;4992431;28;20053;-78
2022/06/28 01:53:51;;;;;;;15.85;14.15;;;;;;;18.24;64.50;99370.41;5027359;28;20029;-77
2022/06/28 01:56:16;;;;;;;14.23;12.70;;;;;;;18.33;64.33;99363.25;5027262;28;20033;-78
2022/06/28 01:58:42;;;;;;;15.35;13.43;;;;;;;18.13;64.41;99345.34;5022266;28;20037;-77
2022/06/28 02:01:07;;;;;;;17.60;15.02;;;;;;;17.95;65.09;99362.28;5007143;28;20033;-78
2022/06/28 02:03:33;;;;;;;17.70;15.85;;;;;;;16.04;70.71;99344.31;5024731;28;20040;-78
2022/06/28 02:05:58;;;;;;;18.60;14.10;;;;;;;16.76;68.46;99354.66;4991361;28;20445;-77
2022/06/28 02:08:24;;;;;;;21.30;16.55;;;;;;;15.95;71.30;99372.84;5025618;28;20033;-77
2022/06/28 02:10:49;;;;;;;19.75;17.65;;;;;;;15.57;72.91;99376.91;5010025;28;20037;-77
2022/06/28 02:13:15;;;;;;;23.60;20.35;;;;;;;15.55;72.99;99371.00;5024062;28;20155;-77
2022/06/28 02:15:40;;;;;;;17.23;15.45;;;;;;;16.01;71.36;99379.88;5008062;28;20025;-78
2022/06/28 02:18:06;;;;;;;17.70;14.90;;;;;;;17.13;67.90;99372.00;5026559;28;20491;-78
2022/06/28 02:20:31;;;;;;;22.17;17.35;;;;;;;16.45;69.43;99381.69;5022237;28;20422;-77
2022/06/28 02:22:57;;;;;;;16.00;13.60;;;;;;;17.36;67.44;99381.34;5026178;28;20029;-77
2022/06/28 02:25:22;;;;;;;22.25;17.85;;;;;;;16.66;68.80;99378.97;5022491;28;20183;-78
2022/06/28 02:27:48;;;;;;;25.30;20.88;;;;;;;16.36;69.35;99388.69;5022699;28;20029;-78
2022/06/28 02:30:13;;;;;;;23.52;20.08;;;;;;;15.92;70.71;99376.91;5024301;28;20477;-77
2022/06/28 02:32:39;;;;;;;17.65;15.13;;;;;;;15.74;71.88;99383.66;5023781;28;20098;-77
2022/06/28 02:40:33;;;;;;;14.98;13.38;;;;;;;17.50;66.06;99395.00;5028781;28;20048;-77
2022/06/28 02:43:00;;;;;;;15.63;13.98;;;;;;;17.54;65.40;99383.38;5026489;28;20030;-77
2022/06/28 02:45:29;;;;;;;17.15;14.75;;;;;;;17.57;65.24;99385.53;5040807;28;20036;-78
2022/06/28 02:47:54;;;;;;;16.27;14.45;;;;;;;17.63;65.46;99380.88;5026514;28;20037;-77
2022/06/28 02:50:20;;;;;;;15.30;13.80;;;;;;;17.72;65.28;99387.31;5020927;28;20084;-78
2022/06/28 02:52:45;;;;;;;16.60;14.75;;;;;;;17.75;64.76;99378.66;5022859;28;20041;-77
2022/06/28 02:55:11;;;;;;;14.85;12.60;;;;;;;17.73;64.37;99381.66;5024791;28;20033;-78
2022/06/28 02:57:38;;;;;;;16.90;13.73;;;;;;;17.69;64.29;99382.50;5023279;28;20470;-77
2022/06/28 03:00:08;;;;;;;15.20;13.70;;;;;;;17.62;64.97;99373.91;5021971;28;20032;-77
2022/06/28 03:02:38;;;;;;;17.48;14.15;;;;;;;17.63;64.37;99378.19;5024347;28;20308;-77
2022/06/28 03:05:05;;;;;;;16.77;14.35;;;;;;;17.58;64.40;99370.94;5023953;28;20033;-77
2022/06/28 03:07:31;;;;;;;16.52;13.43;;;;;;;17.49;64.44;99369.91;5022535;28;20187;-77
2022/06/28 03:09:56;;;;;;;17.35;13.43;;;;;;;17.47;64.55;99365.88;5027650;28;20041;-78
2022/06/28 03:12:22;;;;;;;17.00;14.73;;;;;;;17.44;64.36;99372.63;5021290;28;20060;-78
2022/06/28 03:14:47;;;;;;;18.10;14.60;;;;;;;17.47;64.38;99376.66;5025383;28;20033;-77
2022/06/28 03:17:12;;;;;;;16.75;14.93;;;;;;;17.31;64.79;99362.47;5025634;28;20083;-77
2022/06/28 03:19:38;;;;;;;17.98;15.95;;;;;;;17.17;65.50;99378.47;5026280;28;20032;-78
2022/06/28 03:22:03;;;;;;;20.35;16.90;;;;;;;17.20;64.99;99358.22;5024165;28;20029;-77
2022/06/28 03:24:29;;;;;;;23.20;16.20;;;;;;;17.15;65.62;99374.41;5025315;28;20041;-77
2022/06/28 03:26:54;;;;;;;23.05;20.33;;;;;;;17.10;65.72;99377.94;5024081;28;20116;-77
2022/06/28 03:29:19;;;;;;;22.38;18.58;;;;;;;17.21;65.57;99373.31;5024393;28;20046;-77
2022/06/28 03:31:45;;;;;;;20.48;17.27;;;;;;;17.14;65.72;99372.81;5026762;28;20167;-78
2022/06/28 03:34:10;;;;;;;25.10;21.15;;;;;;;17.04;65.79;99384.47;5027626;28;20056;-78
2022/06/28 03:36:36;;;;;;;23.20;17.63;;;;;;;17.11;65.63;99382.28;5013734;28;20033;-78
2022/06/28 03:39:01;;;;;;;22.00;18.58;;;;;;;17.12;65.78;99383.88;5027941;28;20034;-78
2022/06/28 03:41:26;;;;;;;21.60;17.27;;;;;;;17.01;66.08;99397.69;5027397;28;20028;-77
2022/06/28 03:43:52;;;;;;;21.83;17.20;;;;;;;17.11;65.78;99400.34;5021392;28;20942;-78
2022/06/28 03:46:19;;;;;;;25.20;18.80;;;;;;;17.19;65.62;99394.34;5041535;28;20041;-77
2022/06/28 03:48:45;;;;;;;24.00;18.25;;;;;;;17.12;65.57;99391.19;5025379;28;20159;-78
2022/06/28 03:51:12;;;;;;;21.65;17.27;;;;;;;17.11;65.51;99392.25;5023290;28;20033;-77
2022/06/28 03:53:37;;;;;;;20.38;17.40;;;;;;;17.21;65.36;99403.00;5029650;28;20172;-77
2022/06/28 03:56:04;;;;;;;22.38;18.10;;;;;;;17.16;65.47;99411.13;5027741;28;20037;-78
2022/06/28 03:58:29;;;;;;;20.98;17.33;;;;;;;17.31;65.39;99415.63;5026685;28;20045;-77
2022/06/28 04:00:55;;;;;;;21.58;18.73;;;;;;;17.27;65.23;99412.69;5024026;28;20029;-77
2022/06/28 04:03:20;;;;;;;25.35;19.13;;;;;;;17.20;65.51;99425.66;5021950;28;20125;-77
2022/06/28 04:05:45;;;;;;;23.85;17.85;;;;;;;16.99;65.84;99422.22;5037352;28;20493;-78
2022/06/28 04:08:11;;;;;;;27.13;22.17;;;;;;;16.90;66.90;99425.78;5008161;28;20041;-77
2022/06/28 04:10:37;;;;;;;23.23;19.50;;;;;;;16.92;66.80;99437.09;5027021;28;20025;-77
2022/06/28 04:13:02;;;;;;;23.55;18.70;;;;;;;16.95;66.99;99441.97;5029129;28;20033;-77
2022/06/28 04:15:27;;;;;;;22.63;19.77;;;;;;;16.16;69.60;99431.81;5013071;28;20125;-77
2022/06/28 04:17:53;;;;;;;26.92;19.83;;;;;;;16.94;66.95;99427.66;5027039;28;20042;-77
2022/06/28 04:20:19;;;;;;;20.88;18.50;;;;;;;17.27;66.10;99428.06;5029608;28;20072;-78
2022/06/28 04:22:44;;;;;;;21.33;17.67;;;;;;;17.49;66.00;99431.19;5026726;28;20094;-77
2022/06/28 04:25:09;;;;;;;24.92;18.55;;;;;;;17.56;65.28;99429.78;5022471;28;20057;-77
2022/06/28 04:27:35;;;;;;;22.30;18.40;;;;;;;17.77;65.26;99434.00;5010675;28;20428;-77
2022/06/28 04:30:03;;;;;;;22.27;17.90;;;;;;;17.86;64.87;99435.03;5041321;28;20042;-78
2022/06/28 04:32:28;;;;;;;20.02;17.90;;;;;;;18.09;63.87;99428.06;5031583;28;20029;-77
2022/06/28 04:34:53;;;;;;;22.55;17.48;;;;;;;18.05;64.39;99426.22;5029101;28;20079;-77
2022/06/28 04:37:19;;;;;;;19.85;17.73;;;;;;;18.05;64.66;99420.81;5032730;28;20052;-78
2022/06/28 04:39:44;;;;;;;20.23;16.80;;;;;;;18.14;64.57;99424.53;5030357;28;20163;-77
2022/06/28 04:42:10;;;;;;;19.98;17.85;;;;;;;18.20;63.71;99426.91;5028928;28;20795;-77
2022/06/28 04:44:35;;;;;;;24.48;18.90;;;;;;;18.26;64.85;99431.16;5029370;28;20034;-77
2022/06/28 04:47:01;;;;;;;23.83;20.73;;;;;;;18.04;66.11;99411.91;5028300;28;20037;-77
2022/06/28 04:49:27;;;;;;;27.48;22.90;;;;;;;17.42;67.81;99411.78;5026526;28;20051;-77
2022/06/28 04:51:52;;;;;;;28.50;24.00;;;;;;;16.47;71.15;99433.41;4994934;28;20691;-77
2022/06/28 04:54:17;;;;;;;27.75;23.33;;;;;;;15.88;72.48;99431.56;5029030;28;20037;-78
2022/06/28 04:56:43;;;;;;;28.45;21.90;;;;;;;16.77;70.03;99435.28;5024592;28;20034;-78
2022/06/28 04:59:08;;;;;;;19.83;17.02;;;;;;;17.29;67.43;99432.09;5008704;28;20041;-78
2022/06/28 05:01:33;;;;;;;22.92;20.25;;;;;;;16.86;69.02;99452.47;5011112;28;20078;-78
2022/06/28 05:03:59;;;;;;;32.67;25.15;;;;;;;16.54;70.55;99443.94;5025191;28;20482;-77
2022/06/28 05:06:24;;;;;;;29.85;24.30;;;;;;;16.19;71.95;99428.59;5025934;28;20068;-77
2022/06/28 05:08:50;;;;;;;32.83;26.42;;;;;;;16.01;72.60;99436.41;5010753;28;20379;-77
2022/06/28 05:11:15;;;;;;;20.88;18.73;;;;;;;16.35;71.09;99430.22;5020687;28;20065;-78
2022/06/28 05:13:41;;;;;;;32.60;23.98;;;;;;;16.52;71.96;99439.91;5028155;28;20033;-78
2022/06/28 05:16:06;;;;;;;28.50;22.58;;;;;;;16.20;72.86;99437.50;5025222;28;20041;-78
2022/06/28 05:18:31;;;;;;;33.40;25.88;;;;;;;16.28;71.53;99432.38;5004522;28;20041;-78
2022/06/28 05:20:57;;;;;;;29.55;23.52;;;;;;;16.45;72.80;99440.97;5029316;28;20026;-78
2022/06/28 05:23:23;;;;;;;30.85;24.48;;;;;;;16.32;73.68;99446.09;5009947;28;20148;-78
2022/06/28 05:25:48;;;;;;;21.42;16.15;;;;;;;17.21;69.67;99438.88;5012047;28;20041;-79
2022/06/28 05:28:14;;;;;;;20.48;15.18;;;;;;;18.19;66.14;99448.81;5008479;28;20389;-79
2022/06/28 05:30:39;;;;;;;24.38;17.10;;;;;;;18.47;65.11;99448.03;5010361;28;20504;-79
2022/06/28 05:33:05;;;;;;;28.05;22.20;;;;;;;17.81;68.62;99443.16;5035127;28;20040;-78
2022/06/28 05:35:31;;;;;;;20.92;15.63;;;;;;;18.39;65.76;99454.81;5028341;28;20033;-78
2022/06/28 05:37:57;;;;;;;29.52;18.17;;;;;;;18.33;66.20;99444.34;5033240;28;20297;-78
2022/06/28 05:40:23;;;;;;;25.20;15.77;;;;;;;18.24;65.93;99451.47;4997243;28;20071;-78
2022/06/28 05:42:48;;;;;;;30.45;15.07;;;;;;;18.49;65.70;99456.66;5031302;28;20367;-78
2022/06/28 05:45:13;;;;;;;20.05;16.20;;;;;;;18.12;67.24;99459.13;5022210;28;20076;-78
2022/06/28 05:47:39;;;;;;;23.67;19.63;;;;;;;17.86;69.17;99436.91;5038208;28;20048;-78
2022/06/28 05:50:05;;;;;;;26.45;21.42;;;;;;;17.62;69.74;99462.97;5022789;28;20116;-78
2022/06/28 05:52:30;;;;;;;25.67;18.77;;;;;;;17.81;69.67;99443.16;5023387;28;20036;-78
2022/06/28 05:54:55;;;;;;;17.70;11.93;;;;;;;18.48;65.89;99447.75;5025302;28;20302;-78
2022/06/28 05:57:21;;;;;;;12.05;10.57;;;;;;;18.73;66.05;99457.50;5026224;28;20037;-79
2022/06/28 05:59:46;;;;;;;25.88;19.85;;;;;;;17.87;68.00;99454.72;5006511;28;20033;-78
2022/06/28 06:02:12;;;;;;;26.50;20.25;;;;;;;18.12;68.15;99465.34;5028069;28;20033;-78
2022/06/28 06:04:38;;;;;;;12.35;10.38;;;;;;;18.62;65.60;99462.22;5027552;28;20030;-78
2022/06/28 06:07:04;;;;;;;13.10;9.50;;;;;;;18.86;64.84;99467.66;5004782;28;20159;-78
2022/06/28 06:09:29;;;;;;;13.60;9.82;;;;;;;18.99;64.22;99453.44;5027832;28;20448;-78
2022/06/28 06:11:55;;;;;;;11.40;10.18;;;;;;;19.32;63.56;99466.03;5029253;28;20037;-78
2022/06/28 06:14:21;;;;;;;13.27;11.85;;;;;;;19.26;64.89;99467.16;5032194;28;20127;-78
2022/06/28 06:16:50;;;;;;;10.98;8.93;;;;;;;19.37;63.95;99471.38;5031828;28;20021;-78
2022/06/28 06:19:16;;;;;;;15.90;13.63;;;;;;;19.28;63.95;99456.88;5031141;28;20028;-78
2022/06/28 06:21:41;;;;;;;19.13;13.93;;;;;;;19.29;64.33;99480.13;5027320;28;20079;-78
2022/06/28 06:24:07;;;;;;;10.98;8.05;;;;;;;19.65;62.24;99463.44;5027502;28;20512;-78
2022/06/28 06:26:33;;;;;;;13.00;8.73;;;;;;;19.66;63.29;99452.31;5029408;28;20033;-79
2022/06/28 06:28:59;;;;;;;7.63;6.82;;;;;;;19.75;62.08;99466.81;5026379;28;20500;-79
2022/06/28 06:31:25;;;;;;;9.98;6.95;;;;;;;19.78;61.84;99462.72;5028205;28;20029;-79
2022/06/28 06:33:51;;;;;;;9.38;7.38;;;;;;;19.70;61.94;99471.50;5025467;28;20481;-78
2022/06/28 06:36:17;;;;;;;6.85;6.00;;;;;;;19.80;61.42;99450.50;5027010;28;20065;-78
2022/06/28 06:38:42;;;;;;;9.25;7.78;;;;;;;19.68;62.26;99468.28;5026702;28;20397;-78
2022/06/28 06:41:08;;;;;;;5.97;5.25;;;;;;;19.93;61.11;99457.06;5029383;28;20033;-79
2022/06/28 06:43:34;;;;;;;6.85;5.60;;;;;;;19.78;61.15;99477.06;5028664;28;20044;-78
2022/06/28 06:45:59;;;;;;;8.13;6.13;;;;;;;19.93;60.96;99481.44;5029985;28;20477;-78
2022/06/28 06:48:24;;;;;;;13.85;10.63;;;;;;;17.89;63.76;99474.94;5031051;28;20045;-78
2022/06/28 06:50:50;;;;;;;8.80;5.68;;;;;;;19.53;61.99;99463.09;5031680;28;20030;-78
2022/06/28 06:53:18;;;;;;;11.18;7.00;;;;;;;19.26;61.10;99474.50;5028402;28;20037;-78
2022/06/28 06:55:44;;;;;;;7.75;4.20;;;;;;;19.75;61.50;99476.84;5028943;28;20400;-78
2022/06/28 06:58:10;;;;;;;7.38;4.63;;;;;;;19.84;61.01;99469.66;5027960;28;20540;-78
2022/06/28 07:00:35;;;;;;;14.82;7.43;;;;;;;19.60;61.44;99463.50;5010495;28;20057;-78
2022/06/28 07:03:03;;;;;;;4.88;3.95;;;;;;;19.23;62.40;99467.75;5028298;28;20374;-78
2022/06/28 07:05:29;;;;;;;5.05;4.10;;;;;;;18.73;62.74;99465.63;5011601;28;20477;-78
2022/06/28 07:07:55;;;;;;;5.88;4.70;;;;;;;18.38;62.52;99458.63;5026273;28;20155;-78
2022/06/28 07:10:20;;;;;;;8.90;4.50;;;;;;;18.85;61.53;99463.31;5026871;28;20517;-78
2022/06/28 07:12:46;;;;;;;4.75;3.40;;;;;;;19.44;61.43;99461.00;5029304;28;20651;-78
2022/06/28 07:15:11;;;;;;;7.82;3.72;;;;;;;19.61;58.90;99460.53;5024350;28;20405;-78
2022/06/28 07:17:37;;;;;;;5.32;3.35;;;;;;;19.49;58.86;99448.50;5025999;28;20721;-78
2022/06/28 07:20:03;;;;;;;7.70;3.00;;;;;;;20.32;59.23;99464.88;5002333;28;20022;-78
2022/06/28 07:22:28;;;;;;;5.25;2.97;;;;;;;19.93;59.76;99466.00;4999771;28;20091;-79
2022/06/28 07:24:56;;;;;;;3.22;2.63;;;;;;;20.44;58.42;99468.75;5041234;28;20262;-78
2022/06/28 07:27:22;;;;;;;2.92;2.58;;;;;;;20.22;58.07;99451.47;5026549;28;20037;-78
2022/06/28 07:29:48;;;;;;;3.90;2.83;;;;;;;19.22;59.36;99468.84;5025954;28;20208;-79
2022/06/28 07:32:14;;;;;;;6.32;3.00;;;;;;;19.65;58.98;99463.44;5027309;28;20033;-78
2022/06/28 07:34:39;;;;;;;6.22;2.97;;;;;;;18.93;56.18;99460.00;5027086;28;20029;-78
2022/06/28 07:37:04;;;;;;;3.80;2.35;;;;;;;18.89;57.28;99467.09;5026722;28;20040;-78
2022/06/28 07:39:30;;;;;;;5.50;2.88;;;;;;;19.17;55.10;99451.88;5028150;28;20572;-78
2022/06/28 07:41:55;;;;;;;4.20;2.72;;;;;;;19.98;58.20;99457.81;5007984;28;20046;-79
2022/06/28 07:44:21;;;;;;;5.45;3.33;;;;;;;18.67;57.10;99455.97;5027850;28;20113;-78
2022/06/28 07:46:46;;;;;;;5.63;2.97;;;;;;;19.62;56.91;99442.34;5003126;28;20025;-78
2022/06/28 07:49:12;;;;;;;4.65;2.10;;;;;;;20.00;58.24;99452.09;5044407;28;20431;-78
2022/06/28 07:54:21;;;;;;;3.33;2.50;;;;;;;19.04;57.21;99453.38;5024370;28;20059;-78
2022/06/28 07:56:46;;;;;;;3.67;2.55;;;;;;;19.51;57.07;99459.84;4994542;28;20132;-78
2022/06/28 07:59:12;;;;;;;3.45;2.20;;;;;;;19.68;56.32;99455.53;5043452;28;20493;-78
2022/06/28 08:01:37;;;;;;;4.15;2.22;;;;;;;19.06;59.24;99451.19;5009609;28;20037;-78
2022/06/28 08:04:03;;;;;;;3.33;1.65;;;;;;;20.07;57.42;99442.47;5023511;28;20580;-78
2022/06/28 08:06:28;;;;;;;3.53;2.20;;;;;;;20.53;56.45;99453.38;5027672;28;20111;-78
2022/06/28 08:08:53;;;;;;;2.38;1.98;;;;;;;20.78;55.89;99461.06;5043700;28;20396;-78
2022/06/28 08:11:19;;;;;;;4.25;2.38;;;;;;;20.35;56.42;99454.25;5019051;28;20500;-78
2022/06/28 08:13:48;;;;;;;6.38;2.78;;;;;;;20.99;55.31;99452.53;5028636;28;20156;-78
2022/06/28 08:16:14;;;;;;;5.38;2.08;;;;;;;21.06;55.46;99448.31;5027362;28;20033;-78
2022/06/28 08:18:39;;;;;;;5.85;2.20;;;;;;;21.30;54.22;99448.09;5032195;28;20030;-78
2022/06/28 08:21:05;;;;;;;3.33;1.83;;;;;;;21.32;54.80;99454.84;5031453;28;20036;-78
2022/06/28 08:23:31;;;;;;;6.38;2.53;;;;;;;20.90;54.80;99420.63;5031561;28;20033;-78
2022/06/28 08:25:56;;;;;;;3.85;2.50;;;;;;;21.37;54.42;99448.50;5028835;28;20112;-78
2022/06/28 08:28:22;;;;;;;4.88;2.38;;;;;;;21.62;53.58;99456.09;5028395;28;20442;-78
2022/06/28 08:30:47;;;;;;;3.55;2.08;;;;;;;21.59;53.77;99443.13;5013541;28;20052;-78
2022/06/28 08:33:12;;;;;;;4.72;2.47;;;;;;;20.48;55.29;99445.34;5024026;28;20281;-78
2022/06/28 08:35:38;;;;;;;2.83;2.30;;;;;;;20.85;54.27;99464.19;5030478;28;20041;-78
2022/06/28 08:38:05;;;;;;;4.32;2.22;;;;;;;21.24;52.58;99454.75;5012239;28;20033;-78
2022/06/28 08:40:31;;;;;;;5.03;2.00;;;;;;;21.33;54.01;99450.22;5017535;28;20064;-78
2022/06/28 08:42:58;;;;;;;3.33;1.95;;;;;;;21.79;52.57;99439.94;5029248;28;20032;-78
2022/06/28 08:45:25;;;;;;;5.22;2.30;;;;;;;21.68;51.90;99444.00;5029980;28;20025;-78
2022/06/28 08:47:53;;;;;;;3.28;1.67;;;;;;;21.73;52.51;99445.81;5022586;28;20034;-78
2022/06/28 08:50:40;;;;;;;5.78;2.17;;;;;;;21.68;53.59;99444.00;5029392;28;20024;-78
2022/06/28 08:53:07;;;;;;;4.40;2.17;;;;;;;21.97;51.72;99438.22;5010860;28;20037;-78
2022/06/28 08:55:34;;;;;;;3.95;1.95;;;;;;;22.00;51.22;99453.88;5008828;28;20049;-78
2022/06/28 08:58:01;;;;;;;5.13;1.70;;;;;;;22.12;50.88;99444.09;5046476;28;20115;-78
2022/06/28 09:00:26;;;;;;;4.53;3.30;;;;;;;22.10;51.33;99440.88;5028836;28;20032;-78
2022/06/28 09:02:52;;;;;;;4.68;1.95;;;;;;;22.08;51.13;99443.06;5029643;28;20544;-78
2022/06/28 09:05:20;;;;;;;3.30;1.77;;;;;;;22.40;50.75;99455.63;5031211;28;20033;-78
2022/06/28 09:07:46;;;;;;;5.43;2.08;;;;;;;21.67;50.39;99449.75;5030234;28;20044;-78
2022/06/28 09:10:12;;;;;;;3.60;1.95;;;;;;;21.88;50.87;99449.00;5031485;28;20542;-78
2022/06/28 09:12:38;;;;;;;4.03;1.95;;;;;;;22.09;50.78;99447.41;5011943;28;20068;-78
2022/06/28 09:15:04;;;;;;;2.30;1.80;;;;;;;21.74;49.98;99425.66;5030161;28;20025;-78
2022/06/28 09:17:31;;;;;;;3.65;2.70;;;;;;;20.31;50.57;99458.66;5028462;28;20452;-78
2022/06/28 09:20:00;;;;;;;3.70;1.75;;;;;;;21.65;51.00;99441.91;5012844;28;20310;-78
2022/06/28 09:22:39;;;;;;;2.15;1.90;;;;;;;21.31;48.55;99455.97;5026271;28;20379;-78
2022/06/28 09:25:11;;;;;;;3.60;1.65;;;;;;;21.46;50.66;99450.19;5030637;28;20393;-78
2022/06/28 09:27:38;;;;;;;4.15;1.63;;;;;;;22.01;46.32;99442.72;5026424;28;20042;-78
2022/06/28 09:30:07;;;;;;;1.55;1.42;;;;;;;22.14;47.57;99444.56;5027910;28;20029;-78
2022/06/28 09:32:36;;;;;;;3.53;1.50;;;;;;;22.83;48.16;99453.13;5023570;28;20040;-78
2022/06/28 09:35:11;;;;;;;2.63;1.30;;;;;;;22.86;47.71;99450.59;5028625;28;20381;-78
2022/06/28 09:37:54;;;;;;;2.33;1.73;;;;;;;23.21;47.07;99456.97;5028029;28;20029;-78
2022/06/28 09:40:29;;;;;;;3.75;1.55;;;;;;;23.22;45.75;99455.84;5029962;28;20101;-78
2022/06/28 09:43:11;;;;;;;;;;;;;;;22.12;43.90;99451.44;5014407;28;20033;-78
2022/06/28 09:45:39;;;;;;;5.20;1.65;;;;;;;23.20;45.70;99458.09;5004959;28;20398;-78
2022/06/28 09:48:05;;;;;;;2.03;1.48;;;;;;;23.37;45.70;99457.38;5025047;28;20432;-78
2022/06/28 09:50:40;;;;;;;2.55;1.38;;;;;;;23.45;46.47;99448.41;5027771;28;20040;-78
2022/06/28 09:53:06;;;;;;;2.92;1.30;;;;;;;23.52;44.94;99446.00;5044237;28;20060;-78
2022/06/28 09:55:33;;;;;;;1.48;1.38;;;;;;;23.42;46.19;99462.66;5027258;28;20416;-78
2022/06/28 09:58:01;;;;;;;3.90;1.95;;;;;;;22.20;44.72;99448.78;5028314;28;20037;-78
2022/06/28 10:00:28;;;;;;;3.20;1.75;;;;;;;22.65;46.13;99463.13;5027812;28;20543;-78
2022/06/28 10:02:55;;;;;;;10.65;1.90;;;;;;;22.86;45.21;99452.53;5028046;28;20068;-78
2022/06/28 10:05:20;;;;;;;8.23;1.70;;;;;;;23.05;45.33;99450.34;5029457;28;20137;-78
2022/06/28 10:07:46;;;;;;;4.10;1.98;;;;;;;21.67;45.93;99444.31;5027725;28;20096;-78
2022/06/28 10:10:13;;;;;;;2.83;2.28;;;;;;;21.48;45.74;99433.59;5029536;28;20108;-78
2022/06/28 10:15:35;;;;;;;3.40;1.75;;;;;;;22.20;48.08;99413.41;5026731;28;20036;-78
2022/06/28 10:18:09;;;;;;;2.67;1.83;;;;;;;22.44;45.51;99443.00;5008123;28;20033;-78
2022/06/28 10:20:38;;;;;;;4.45;2.40;;;;;;;22.93;44.98;99433.81;5028923;28;20025;-78
2022/06/28 10:23:25;;;;;;;2.80;1.48;;;;;;;24.32;45.37;99437.19;5030028;28;20055;-78
2022/06/28 10:26:15;;;;;;;3.65;1.90;;;;;;;23.78;45.04;99435.94;5023343;28;20033;-79
2022/06/28 10:28:48;;;;;;;4.90;1.80;;;;;;;22.46;46.31;99434.50;5028881;28;20037;-78
2022/06/28 10:31:23;;;;;;;5.30;2.97;;;;;;;21.60;47.00;99431.94;5028691;28;20056;-78
2022/06/28 10:33:53;;;;;;;4.85;2.55;;;;;;;21.69;48.39;99432.00;5028774;28;20501;-78
2022/06/28 10:36:21;;;;;;;3.95;2.38;;;;;;;22.44;46.12;99406.81;5027076;28;20630;-78
2022/06/28 10:39:08;;;;;;;4.78;2.20;;;;;;;21.90;46.02;99422.31;5029611;28;20379;-78
2022/06/28 10:41:36;;;;;;;3.63;2.00;;;;;;;21.62;48.14;99418.84;5027311;28;20033;-78
2022/06/28 10:44:07;;;;;;;6.10;2.90;;;;;;;21.50;47.75;99415.06;5029814;28;20378;-78
2022/06/28 10:46:33;;;;;;;3.03;2.22;;;;;;;21.30;48.11;99416.31;5027555;28;20508;-78
2022/06/28 10:49:01;;;;;;;2.80;1.83;;;;;;;21.51;48.19;99409.31;5028215;28;20080;-78
2022/06/28 10:51:26;;;;;;;3.60;1.83;;;;;;;22.71;45.68;99412.91;5028123;28;20485;-78
2022/06/28 10:53:57;;;;;;;3.30;1.90;;;;;;;23.80;46.37;99409.16;5044698;28;20060;-78
2022/06/28 10:56:24;;;;;;;4.03;1.58;;;;;;;23.94;45.12;99409.00;5026706;28;20112;-78
2022/06/28 10:58:56;;;;;;;2.88;2.00;;;;;;;24.59;42.30;99401.31;5024804;28;20473;-78
2022/06/28 11:01:40;;;;;;;2.50;1.45;;;;;;;24.83;44.10;99398.84;5028057;28;20028;-79
2022/06/28 11:04:18;;;;;;;2.78;1.70;;;;;;;25.27;43.29;99405.69;5027848;28;20029;-78
2022/06/28 11:06:45;;;;;;;4.63;1.83;;;;;;;25.28;41.71;99390.88;5028848;28;20357;-78
2022/06/28 11:09:22;;;;;;;14.80;2.70;;;;;;;24.62;40.67;99392.47;5044491;28;20044;-78
2022/06/28 11:12:09;;;;;;;8.95;2.33;;;;;;;25.21;39.85;99396.84;5030995;28;20056;-78
2022/06/28 11:14:49;;;;;;;1.95;1.63;;;;;;;25.65;39.49;99381.75;5028845;28;20036;-78
2022/06/28 11:17:26;;;;;;;3.78;1.92;;;;;;;25.24;40.13;99390.72;5009486;28;20025;-78
2022/06/28 11:20:00;;;;;;;3.20;1.50;;;;;;;26.59;40.16;99380.03;5026350;28;20026;-78
2022/06/28 11:22:47;;;;;;;5.88;2.00;;;;;;;26.26;37.71;99384.75;5008583;28;20036;-78
2022/06/28 11:25:20;;;;;;;2.50;1.80;;;;;;;25.02;42.08;99380.09;5024047;28;20112;-79
2022/06/28 11:27:55;;;;;;;2.33;1.60;;;;;;;26.47;40.70;99383.53;5025507;28;20503;-79
2022/06/28 11:30:23;;;;;;;4.60;2.10;;;;;;;26.55;38.49;99376.38;5023141;28;20113;-79
2022/06/28 11:32:50;;;;;;;3.92;2.00;;;;;;;23.95;41.20;99369.66;5026718;28;20370;-78
2022/06/28 11:35:24;;;;;;;2.50;2.28;;;;;;;24.11;42.13;99357.16;5029264;28;20435;-78